createdAt,value
2022-08-19T00:00:52.115Z,14.40
2022-08-19T00:02:25.259Z,14.63
2022-08-19T00:03:58.716Z,13.77
2022-08-19T00:05:32.537Z,14.60
2022-08-19T00:07:05.970Z,14.33
2022-08-19T00:08:39.233Z,14.33
2022-08-19T00:10:17.368Z,14.23
2022-08-19T00:11:51.045Z,14.73
2022-08-19T00:13:25.581Z,14.37
2022-08-19T00:14:58.970Z,14.80
2022-08-19T00:16:32.162Z,13.97
2022-08-19T00:18:04.331Z,14.10
2022-08-19T00:19:39.179Z,14.23
2022-08-19T00:21:12.361Z,16.03
2022-08-19T00:22:46.216Z,15.27
2022-08-19T00:24:19.890Z,15.90
2022-08-19T00:25:53.127Z,15.37
2022-08-19T00:27:26.988Z,15.27
2022-08-19T00:29:02.048Z,16.50
2022-08-19T00:30:35.342Z,17.60
2022-08-19T00:32:10.750Z,17.43
2022-08-19T00:33:43.984Z,18.50
2022-08-19T00:35:17.574Z,19.73
2022-08-19T00:36:50.957Z,19.87
2022-08-19T00:38:35.197Z,19.60
2022-08-19T00:40:13.079Z,20.80
2022-08-19T00:41:48.502Z,21.13
2022-08-19T00:43:23.241Z,20.93
2022-08-19T00:44:57.850Z,19.97
2022-08-19T00:46:31.272Z,19.67
2022-08-19T00:48:05.578Z,19.27
2022-08-19T00:49:52.659Z,20.13
2022-08-19T00:51:27.698Z,19.70
2022-08-19T00:53:01.192Z,19.87
2022-08-19T00:54:34.661Z,20.10
2022-08-19T00:56:09.762Z,20.20
2022-08-19T00:57:47.730Z,19.30
2022-08-19T00:59:56.391Z,19.33
2022-08-19T01:01:18.046Z,20.70
2022-08-19T01:02:51.452Z,19.97
2022-08-19T01:04:24.715Z,20.10
2022-08-19T01:05:58.298Z,19.63
2022-08-19T01:07:35.991Z,20.23
2022-08-19T01:09:12.169Z,19.00
2022-08-19T01:10:49.302Z,18.23
2022-08-19T01:12:23.192Z,20.57
2022-08-19T01:13:57.003Z,20.40
2022-08-19T01:15:33.255Z,18.73
2022-08-19T01:17:07.350Z,20.40
2022-08-19T01:18:43.330Z,19.27
2022-08-19T01:20:21.708Z,19.60
2022-08-19T01:22:01.394Z,20.47
2022-08-19T01:23:48.963Z,20.50
2022-08-19T01:25:26.449Z,19.47
2022-08-19T01:26:59.391Z,19.03
2022-08-19T01:28:33.947Z,21.00
2022-08-19T01:30:14.829Z,20.37
2022-08-19T01:31:48.105Z,20.20
2022-08-19T01:33:21.605Z,19.50
2022-08-19T01:34:54.750Z,19.53
2022-08-19T01:36:32.409Z,19.57
2022-08-19T01:38:08.348Z,19.53
2022-08-19T01:39:44.865Z,21.03
2022-08-19T01:41:20.282Z,19.60
2022-08-19T01:42:54.281Z,20.43
2022-08-19T01:44:27.651Z,19.70
2022-08-19T01:46:00.022Z,19.97
2022-08-19T01:47:33.186Z,20.27
2022-08-19T01:49:06.414Z,20.63
2022-08-19T01:50:40.085Z,20.77
2022-08-19T01:52:13.221Z,20.67
2022-08-19T01:53:49.994Z,21.20
2022-08-19T01:55:24.840Z,19.40
2022-08-19T01:57:05.541Z,21.03
2022-08-19T01:58:53.291Z,21.37
2022-08-19T02:00:31.686Z,21.20
2022-08-19T02:02:08.187Z,22.00
2022-08-19T02:03:41.370Z,21.43
2022-08-19T02:05:13.863Z,21.57
2022-08-19T02:06:47.005Z,22.00
2022-08-19T02:08:20.168Z,20.50
2022-08-19T02:09:53.558Z,21.83
2022-08-19T02:11:32.346Z,21.47
2022-08-19T02:13:05.611Z,22.53
2022-08-19T02:14:39.096Z,22.03
2022-08-19T02:16:12.252Z,20.20
2022-08-19T02:17:45.520Z,20.37
2022-08-19T02:19:18.938Z,21.63
2022-08-19T02:20:52.486Z,21.67
2022-08-19T02:22:26.454Z,20.93
2022-08-19T02:23:59.744Z,21.23
2022-08-19T02:25:32.061Z,21.67
2022-08-19T02:27:07.203Z,22.80
2022-08-19T02:28:39.699Z,21.87
2022-08-19T02:30:18.200Z,20.47
2022-08-19T02:31:50.452Z,21.07
2022-08-19T02:33:23.619Z,21.03
2022-08-19T02:34:56.742Z,20.30
2022-08-19T02:36:31.222Z,21.40
2022-08-19T02:38:21.831Z,21.93
2022-08-19T02:39:54.229Z,19.97
2022-08-19T02:41:30.207Z,20.93
2022-08-19T02:43:06.070Z,20.13
2022-08-19T02:44:39.377Z,22.10
2022-08-19T02:46:18.792Z,21.43
2022-08-19T02:47:51.912Z,20.90
2022-08-19T02:49:25.168Z,20.83
2022-08-19T02:50:58.466Z,21.93
2022-08-19T02:52:30.644Z,20.17
2022-08-19T02:54:03.834Z,21.60
2022-08-19T02:55:45.659Z,20.13
2022-08-19T02:57:19.299Z,20.73
2022-08-19T02:58:53.971Z,22.33
2022-08-19T03:00:27.103Z,21.43
2022-08-19T03:01:59.445Z,20.77
2022-08-19T03:03:32.913Z,22.57
2022-08-19T03:05:07.313Z,20.80
2022-08-19T03:06:41.624Z,20.87
2022-08-19T03:08:15.645Z,21.23
2022-08-19T03:09:48.775Z,20.73
2022-08-19T03:11:24.639Z,20.87
2022-08-19T03:12:56.761Z,20.30
2022-08-19T03:14:32.618Z,21.40
2022-08-19T03:16:07.815Z,21.17
2022-08-19T03:17:41.145Z,21.27
2022-08-19T03:19:15.485Z,21.33
2022-08-19T03:20:50.533Z,20.73
2022-08-19T03:22:24.031Z,21.97
2022-08-19T03:23:58.134Z,20.77
2022-08-19T03:25:30.250Z,22.23
2022-08-19T03:27:05.818Z,20.70
2022-08-19T03:28:39.341Z,21.37
2022-08-19T03:30:15.287Z,21.30
2022-08-19T03:31:56.648Z,21.57
2022-08-19T03:33:31.736Z,21.73
2022-08-19T03:35:05.993Z,21.77
2022-08-19T03:36:39.775Z,21.80
2022-08-19T03:38:12.896Z,22.10
2022-08-19T03:39:45.977Z,22.13
2022-08-19T03:41:22.866Z,22.30
2022-08-19T03:42:56.025Z,22.20
2022-08-19T03:44:29.336Z,21.97
2022-08-19T03:46:06.671Z,22.17
2022-08-19T03:47:40.727Z,22.20
2022-08-19T03:49:14.198Z,22.67
2022-08-19T03:50:47.828Z,22.43
2022-08-19T03:52:20.965Z,23.83
2022-08-19T03:53:53.549Z,23.33
2022-08-19T03:55:26.664Z,23.13
2022-08-19T03:57:00.503Z,23.23
2022-08-19T03:58:33.621Z,22.30
2022-08-19T04:00:13.506Z,23.87
2022-08-19T04:01:47.555Z,23.87
2022-08-19T04:03:20.773Z,22.87
2022-08-19T04:04:56.440Z,22.37
2022-08-19T04:06:33.018Z,24.13
2022-08-19T04:08:08.695Z,23.80
2022-08-19T04:09:45.387Z,24.97
2022-08-19T04:11:22.407Z,23.53
2022-08-19T04:13:15.742Z,23.33
2022-08-19T04:14:48.946Z,24.33
2022-08-19T04:16:22.437Z,24.87
2022-08-19T04:18:08.726Z,24.03
2022-08-19T04:19:43.826Z,24.40
2022-08-19T04:21:18.943Z,25.47
2022-08-19T04:22:52.373Z,25.83
2022-08-19T04:24:25.752Z,25.70
2022-08-19T04:25:59.321Z,25.13
2022-08-19T04:27:33.656Z,25.07
2022-08-19T04:29:12.173Z,25.30
2022-08-19T04:30:49.484Z,24.03
2022-08-19T04:32:23.645Z,24.43
2022-08-19T04:33:59.141Z,24.47
2022-08-19T04:35:37.471Z,24.90
2022-08-19T04:37:13.677Z,24.93
2022-08-19T04:38:46.873Z,24.17
2022-08-19T04:40:37.812Z,25.43
2022-08-19T04:42:30.624Z,24.23
2022-08-19T04:44:04.738Z,24.57
2022-08-19T04:45:43.497Z,24.37
2022-08-19T04:47:17.137Z,24.43
2022-08-19T04:49:13.602Z,24.90
2022-08-19T04:50:47.186Z,24.50
2022-08-19T04:52:19.305Z,24.17
2022-08-19T04:53:53.363Z,25.10
2022-08-19T04:55:27.512Z,24.83
2022-08-19T04:57:00.709Z,26.77
2022-08-19T04:58:33.812Z,26.53
2022-08-19T05:00:09.049Z,25.40
2022-08-19T05:01:44.607Z,27.23
2022-08-19T05:03:18.036Z,25.27
2022-08-19T05:04:52.550Z,26.93
2022-08-19T05:06:26.394Z,25.37
2022-08-19T05:07:59.913Z,25.10
2022-08-19T05:09:57.032Z,24.50
2022-08-19T05:11:29.304Z,25.33
2022-08-19T05:13:02.622Z,25.70
2022-08-19T05:14:37.529Z,25.17
2022-08-19T05:16:12.551Z,25.27
2022-08-19T05:18:05.634Z,24.93
2022-08-19T05:19:56.457Z,25.07
2022-08-19T05:21:49.477Z,25.53
2022-08-19T05:23:23.069Z,26.93
2022-08-19T05:25:11.860Z,26.77
2022-08-19T05:26:49.430Z,25.83
2022-08-19T05:28:23.007Z,27.27
2022-08-19T05:29:56.251Z,27.23
2022-08-19T05:31:29.453Z,26.97
2022-08-19T05:33:02.645Z,27.80
2022-08-19T05:34:36.282Z,27.17
2022-08-19T05:36:10.218Z,30.33
2022-08-19T05:37:44.702Z,28.63
2022-08-19T05:39:21.491Z,29.43
2022-08-19T05:40:54.619Z,30.20
2022-08-19T05:42:27.788Z,29.33
2022-08-19T05:44:02.854Z,29.93
2022-08-19T05:45:40.952Z,30.83
2022-08-19T05:47:15.773Z,29.10
2022-08-19T05:48:49.560Z,32.30
2022-08-19T05:50:23.384Z,30.57
2022-08-19T05:51:57.654Z,33.50
2022-08-19T05:53:32.156Z,31.27
2022-08-19T05:55:06.357Z,31.07
2022-08-19T05:56:39.557Z,30.90
2022-08-19T05:58:12.811Z,31.07
2022-08-19T05:59:46.838Z,29.97
2022-08-19T06:01:21.218Z,31.17
2022-08-19T06:02:55.663Z,30.43
2022-08-19T06:04:29.638Z,29.03
2022-08-19T06:06:03.565Z,29.23
2022-08-19T06:07:36.844Z,30.43
2022-08-19T06:09:11.945Z,29.77
2022-08-19T06:10:45.101Z,28.20
2022-08-19T06:12:18.210Z,29.47
2022-08-19T06:13:59.614Z,28.83
2022-08-19T06:15:33.518Z,28.43
2022-08-19T06:17:07.407Z,27.70
2022-08-19T06:18:40.792Z,28.33
2022-08-19T06:20:29.745Z,26.80
2022-08-19T06:22:14.059Z,27.47
2022-08-19T06:23:46.985Z,27.43
2022-08-19T06:25:21.645Z,27.57
2022-08-19T06:27:00.746Z,26.47
2022-08-19T06:28:35.031Z,26.10
2022-08-19T06:30:09.372Z,27.07
2022-08-19T06:31:44.717Z,25.83
2022-08-19T06:33:18.056Z,26.40
2022-08-19T06:34:51.908Z,24.53
2022-08-19T06:36:32.072Z,24.57
2022-08-19T06:38:06.003Z,24.07
2022-08-19T06:39:40.844Z,23.20
2022-08-19T06:41:15.894Z,21.27
2022-08-19T06:42:54.924Z,20.97
2022-08-19T06:44:40.565Z,20.50
2022-08-19T06:46:18.443Z,19.57
2022-08-19T06:47:55.288Z,20.23
2022-08-19T06:49:32.624Z,18.70
2022-08-19T06:51:08.720Z,18.53
2022-08-19T06:52:42.048Z,17.23
2022-08-19T06:54:19.174Z,17.20
2022-08-19T06:56:01.483Z,17.00
2022-08-19T06:57:36.567Z,17.87
2022-08-19T06:59:12.521Z,16.70
2022-08-19T07:00:45.751Z,16.57
2022-08-19T07:02:19.446Z,16.87
2022-08-19T07:03:52.692Z,16.73
2022-08-19T07:05:25.877Z,16.50
2022-08-19T07:07:00.935Z,16.70
2022-08-19T07:08:52.985Z,16.30
2022-08-19T07:10:32.083Z,15.03
2022-08-19T07:12:08.422Z,15.50
2022-08-19T07:13:44.447Z,16.33
2022-08-19T07:15:18.264Z,16.03
2022-08-19T07:16:55.655Z,15.93
2022-08-19T07:18:28.848Z,15.60
2022-08-19T07:20:05.342Z,15.00
2022-08-19T07:21:40.559Z,16.43
2022-08-19T07:23:16.038Z,16.63
2022-08-19T07:24:51.477Z,16.90
2022-08-19T07:26:27.931Z,15.50
2022-08-19T07:28:01.785Z,16.30
2022-08-19T07:29:37.602Z,17.03
2022-08-19T07:31:13.131Z,16.80
2022-08-19T07:32:50.293Z,16.37
2022-08-19T07:34:24.617Z,17.67
2022-08-19T07:35:57.780Z,17.13
2022-08-19T07:37:33.365Z,17.60
2022-08-19T07:39:13.220Z,17.07
2022-08-19T07:40:47.253Z,16.73
2022-08-19T07:42:21.978Z,17.90
2022-08-19T07:43:55.154Z,18.03
2022-08-19T07:45:30.295Z,18.43
2022-08-19T07:47:04.038Z,16.67
2022-08-19T07:48:38.198Z,17.10
2022-08-19T07:50:13.182Z,16.20
2022-08-19T07:51:46.791Z,17.17
2022-08-19T07:53:20.408Z,16.97
2022-08-19T07:54:53.737Z,16.97
2022-08-19T07:56:27.015Z,17.00
2022-08-19T07:58:00.381Z,18.13
2022-08-19T07:59:37.147Z,16.83
2022-08-19T08:01:16.425Z,16.50
2022-08-19T08:02:49.801Z,16.87
2022-08-19T08:04:42.093Z,17.00
2022-08-19T08:06:33.896Z,17.13
2022-08-19T08:08:27.690Z,16.93
2022-08-19T08:10:02.909Z,17.00
2022-08-19T08:11:37.929Z,16.43
2022-08-19T08:13:11.493Z,16.37
2022-08-19T08:14:48.294Z,16.43
2022-08-19T08:16:22.855Z,16.20
2022-08-19T08:17:57.505Z,16.63
2022-08-19T08:19:31.985Z,15.70
2022-08-19T08:21:05.439Z,16.13
2022-08-19T08:22:56.301Z,15.47
2022-08-19T08:24:32.212Z,16.70
2022-08-19T08:26:05.906Z,15.97
2022-08-19T08:27:40.427Z,16.50
2022-08-19T08:29:14.248Z,16.50
2022-08-19T08:30:49.134Z,17.27
2022-08-19T08:32:25.201Z,16.50
2022-08-19T08:33:58.376Z,17.80
2022-08-19T08:35:31.655Z,18.53
2022-08-19T08:37:04.949Z,18.80
2022-08-19T08:38:40.813Z,17.90
2022-08-19T08:40:25.533Z,17.77
2022-08-19T08:42:10.187Z,17.87
2022-08-19T08:43:54.208Z,17.30
2022-08-19T08:45:27.544Z,17.17
2022-08-19T08:47:13.342Z,17.13
2022-08-19T08:48:54.569Z,16.57
2022-08-19T08:50:33.794Z,17.10
2022-08-19T08:52:11.215Z,16.57
2022-08-19T08:53:46.093Z,16.13
2022-08-19T08:55:22.008Z,16.47
2022-08-19T08:56:56.082Z,16.30
2022-08-19T08:58:34.046Z,17.03
2022-08-19T09:00:15.709Z,17.17
2022-08-19T09:01:51.077Z,17.03
2022-08-19T09:03:31.629Z,17.63
2022-08-19T09:05:07.290Z,17.00
2022-08-19T09:06:46.231Z,16.70
2022-08-19T09:08:28.035Z,15.83
2022-08-19T09:10:10.050Z,15.87
2022-08-19T09:12:05.622Z,16.20
2022-08-19T09:13:48.166Z,16.60
2022-08-19T09:15:33.267Z,17.13
2022-08-19T09:17:08.980Z,17.30
2022-08-19T09:18:44.168Z,17.63
2022-08-19T09:20:23.993Z,16.63
2022-08-19T09:22:01.273Z,15.27
2022-08-19T09:23:34.648Z,15.10
2022-08-19T09:25:11.437Z,14.70
2022-08-19T09:26:48.517Z,14.37
2022-08-19T09:28:27.198Z,14.70
2022-08-19T09:30:01.247Z,14.33
2022-08-19T09:31:35.133Z,12.77
2022-08-19T09:33:08.982Z,14.17
2022-08-19T09:34:44.291Z,12.63
2022-08-19T09:36:31.153Z,12.57
2022-08-19T09:38:07.789Z,12.43
2022-08-19T09:39:43.756Z,12.33
2022-08-19T09:41:19.752Z,12.47
2022-08-19T09:42:54.032Z,12.47
2022-08-19T09:44:27.333Z,11.70
2022-08-19T09:46:01.218Z,11.70
2022-08-19T09:47:37.105Z,10.70
2022-08-19T09:49:13.808Z,10.47
2022-08-19T09:50:51.904Z,9.70
2022-08-19T09:52:32.781Z,9.70
2022-08-19T09:54:07.090Z,9.67
2022-08-19T09:55:45.000Z,8.67
2022-08-19T09:57:20.163Z,9.20
2022-08-19T09:58:53.360Z,9.07
2022-08-19T10:00:27.712Z,9.33
2022-08-19T10:02:03.784Z,9.10
2022-08-19T10:03:43.897Z,9.30
2022-08-19T10:05:34.697Z,9.50
2022-08-19T10:07:07.893Z,9.73
2022-08-19T10:08:50.290Z,10.67
2022-08-19T10:10:24.071Z,10.20
2022-08-19T10:11:57.819Z,12.07
2022-08-19T10:13:33.082Z,12.13
2022-08-19T10:15:07.893Z,11.40
2022-08-19T10:16:42.533Z,11.80
2022-08-19T10:18:15.444Z,11.60
2022-08-19T10:19:55.230Z,11.10
2022-08-19T10:21:32.109Z,11.93
2022-08-19T10:23:06.021Z,11.90
2022-08-19T10:24:42.956Z,11.40
2022-08-19T10:26:18.536Z,12.20
2022-08-19T10:27:52.282Z,10.70
2022-08-19T10:29:32.810Z,10.87
2022-08-19T10:31:07.895Z,9.83
2022-08-19T10:32:41.128Z,10.50
2022-08-19T10:34:27.431Z,9.13
2022-08-19T10:36:02.273Z,9.57
2022-08-19T10:37:35.532Z,8.80
2022-08-19T10:39:12.413Z,8.87
2022-08-19T10:40:46.902Z,8.80
2022-08-19T10:42:21.727Z,8.57
2022-08-19T10:43:56.230Z,8.23
2022-08-19T10:45:29.434Z,8.27
2022-08-19T10:47:03.293Z,9.07
2022-08-19T10:48:36.973Z,9.27
2022-08-19T10:50:28.991Z,9.07
2022-08-19T10:52:22.023Z,9.40
2022-08-19T10:53:59.040Z,9.73
2022-08-19T10:55:49.514Z,8.87
2022-08-19T10:57:27.942Z,9.23
2022-08-19T10:59:10.099Z,8.83
2022-08-19T11:00:44.671Z,7.93
2022-08-19T11:02:17.956Z,8.30
2022-08-19T11:03:51.093Z,8.40
2022-08-19T11:05:24.558Z,8.60
2022-08-19T11:06:58.386Z,7.90
2022-08-19T11:08:31.782Z,7.77
2022-08-19T11:10:06.886Z,7.33
2022-08-19T11:11:42.325Z,7.23
2022-08-19T11:13:16.916Z,7.13
2022-08-19T11:14:50.878Z,6.80
2022-08-19T11:16:27.009Z,6.80
2022-08-19T11:18:00.182Z,7.07
2022-08-19T11:19:34.117Z,6.60
2022-08-19T11:21:09.315Z,6.63
2022-08-19T11:22:43.153Z,6.63
2022-08-19T11:24:18.765Z,7.13
2022-08-19T11:25:52.115Z,7.20
2022-08-19T11:27:25.322Z,6.17
2022-08-19T11:29:01.002Z,6.90
2022-08-19T11:30:34.252Z,6.17
2022-08-19T11:32:10.345Z,6.20
2022-08-19T11:33:47.821Z,6.60
2022-08-19T11:35:21.353Z,6.37
2022-08-19T11:36:55.543Z,6.50
2022-08-19T11:38:28.974Z,6.50
2022-08-19T11:40:02.142Z,6.67
2022-08-19T11:41:35.439Z,6.33
2022-08-19T11:43:07.580Z,6.60
2022-08-19T11:44:42.041Z,6.27
2022-08-19T11:46:17.500Z,6.40
2022-08-19T11:47:50.880Z,5.73
2022-08-19T11:49:24.272Z,4.90
2022-08-19T11:50:57.558Z,5.53
2022-08-19T11:52:30.659Z,5.50
2022-08-19T11:54:06.348Z,5.30
2022-08-19T11:55:44.070Z,5.63
2022-08-19T11:57:18.010Z,5.37
2022-08-19T11:58:51.207Z,5.87
2022-08-19T12:00:25.722Z,6.13
2022-08-19T12:01:58.894Z,5.67
2022-08-19T12:03:32.256Z,6.23
2022-08-19T12:05:11.538Z,5.73
2022-08-19T12:06:45.859Z,5.40
2022-08-19T12:08:19.987Z,5.50
2022-08-19T12:09:53.345Z,5.43
2022-08-19T12:11:29.032Z,5.20
2022-08-19T12:13:04.615Z,4.90
2022-08-19T12:14:38.038Z,5.00
2022-08-19T12:16:13.706Z,5.93
2022-08-19T12:17:47.140Z,7.00
2022-08-19T12:19:22.529Z,7.33
2022-08-19T12:20:57.127Z,7.90
2022-08-19T12:22:30.257Z,8.17
2022-08-19T12:24:05.757Z,9.20
2022-08-19T12:25:52.394Z,9.97
2022-08-19T12:27:40.357Z,10.97
2022-08-19T12:29:15.050Z,10.97
2022-08-19T12:30:53.439Z,10.93
2022-08-19T12:32:28.029Z,11.70
2022-08-19T12:34:03.514Z,11.73
2022-08-19T12:35:37.341Z,11.60
2022-08-19T12:37:11.864Z,11.97
2022-08-19T12:38:45.539Z,13.33
2022-08-19T12:40:19.344Z,13.10
2022-08-19T12:41:54.735Z,13.30
2022-08-19T12:43:30.314Z,13.60
2022-08-19T12:45:03.509Z,13.83
2022-08-19T12:46:40.259Z,13.77
2022-08-19T12:48:33.481Z,15.47
2022-08-19T12:50:09.967Z,14.87
2022-08-19T12:51:43.827Z,15.10
2022-08-19T12:53:18.617Z,15.37
2022-08-19T12:54:54.389Z,15.27
2022-08-19T12:56:28.392Z,14.00
2022-08-19T12:58:02.446Z,15.37
2022-08-19T12:59:35.778Z,15.50
2022-08-19T13:01:11.491Z,15.50
2022-08-19T13:02:47.586Z,16.40
2022-08-19T13:04:22.142Z,16.30
2022-08-19T13:05:55.289Z,16.17
2022-08-19T13:07:29.610Z,15.50
2022-08-19T13:09:05.152Z,15.97
2022-08-19T13:10:39.376Z,16.67
2022-08-19T13:12:14.033Z,18.03
2022-08-19T13:13:49.568Z,17.77
2022-08-19T13:15:24.783Z,19.50
2022-08-19T13:16:58.306Z,18.43
2022-08-19T13:18:32.502Z,19.33
2022-08-19T13:20:09.730Z,17.90
2022-08-19T13:21:42.883Z,18.60
2022-08-19T13:23:16.011Z,18.90
2022-08-19T13:24:49.318Z,17.87
2022-08-19T13:26:23.317Z,19.13
2022-08-19T13:27:56.952Z,18.40
2022-08-19T13:29:47.477Z,18.93
2022-08-19T13:31:36.147Z,18.87
2022-08-19T13:33:15.465Z,18.33
2022-08-19T13:34:49.352Z,19.00
2022-08-19T13:36:23.898Z,20.27
2022-08-19T13:37:57.053Z,19.23
2022-08-19T13:39:29.306Z,19.90
2022-08-19T13:41:12.105Z,18.77
2022-08-19T13:42:50.917Z,18.63
2022-08-19T13:44:24.242Z,19.03
2022-08-19T13:45:57.628Z,18.10
2022-08-19T13:47:30.980Z,18.40
2022-08-19T13:49:05.221Z,18.90
2022-08-19T13:50:42.615Z,20.63
2022-08-19T13:52:17.117Z,20.43
2022-08-19T13:53:51.484Z,20.37
2022-08-19T13:55:26.786Z,20.27
2022-08-19T13:56:59.953Z,19.23
2022-08-19T13:58:32.639Z,20.33
2022-08-19T14:00:06.961Z,20.23
2022-08-19T14:01:40.621Z,20.70
2022-08-19T14:03:14.954Z,19.97
2022-08-19T14:04:48.072Z,18.60
2022-08-19T14:06:22.235Z,18.80
2022-08-19T14:07:57.073Z,20.03
2022-08-19T14:09:30.617Z,18.87
2022-08-19T14:11:06.588Z,20.77
2022-08-19T14:12:40.309Z,21.27
2022-08-19T14:14:16.448Z,20.53
2022-08-19T14:15:50.754Z,19.27
2022-08-19T14:17:23.939Z,22.97
2022-08-19T14:18:57.193Z,23.63
2022-08-19T14:20:30.355Z,24.73
2022-08-19T14:22:03.739Z,26.60
2022-08-19T14:23:38.261Z,25.30
2022-08-19T14:25:14.668Z,26.20
2022-08-19T14:26:48.019Z,27.17
2022-08-19T14:28:21.139Z,25.80
2022-08-19T14:29:58.887Z,28.90
2022-08-19T14:31:32.010Z,27.90
2022-08-19T14:33:05.836Z,27.97
2022-08-19T14:34:39.215Z,29.10
2022-08-19T14:36:12.416Z,27.33
2022-08-19T14:37:47.332Z,27.57
2022-08-19T14:39:21.996Z,28.00
2022-08-19T14:40:55.166Z,28.73
2022-08-19T14:42:28.442Z,27.33
2022-08-19T14:44:02.356Z,28.90
2022-08-19T14:45:39.105Z,28.40
2022-08-19T14:47:14.154Z,29.13
2022-08-19T14:48:47.365Z,27.33
2022-08-19T14:50:25.176Z,28.03
2022-08-19T14:51:58.486Z,28.53
2022-08-19T14:53:31.761Z,27.20
2022-08-19T14:55:07.850Z,27.60
2022-08-19T14:56:42.967Z,28.30
2022-08-19T14:58:29.312Z,24.83
2022-08-19T15:00:03.253Z,27.73
2022-08-19T15:01:36.884Z,25.90
2022-08-19T15:03:10.073Z,26.17
2022-08-19T15:04:43.210Z,28.47
2022-08-19T15:06:16.736Z,26.53
2022-08-19T15:07:49.937Z,27.87
2022-08-19T15:09:23.168Z,27.33
2022-08-19T15:10:58.646Z,29.43
2022-08-19T15:12:31.878Z,28.20
2022-08-19T15:14:06.266Z,27.20
2022-08-19T15:15:40.021Z,27.00
2022-08-19T15:17:13.144Z,29.63
2022-08-19T15:18:47.810Z,28.93
2022-08-19T15:20:23.744Z,30.27
2022-08-19T15:21:56.931Z,30.63
2022-08-19T15:23:30.202Z,32.97
2022-08-19T15:25:03.565Z,33.17
2022-08-19T15:26:38.864Z,29.87
2022-08-19T15:28:12.795Z,30.63
2022-08-19T15:29:46.296Z,31.23
2022-08-19T15:31:25.352Z,30.83
2022-08-19T15:33:03.416Z,32.83
2022-08-19T15:34:37.040Z,34.33
2022-08-19T15:36:11.221Z,31.50
2022-08-19T15:37:51.808Z,30.53
2022-08-19T15:39:25.094Z,32.33
2022-08-19T15:41:19.113Z,32.53
2022-08-19T15:42:54.014Z,32.00
2022-08-19T15:44:27.505Z,31.77
2022-08-19T15:46:00.687Z,32.17
2022-08-19T15:47:35.441Z,29.70
2022-08-19T15:49:09.336Z,30.97
2022-08-19T15:50:42.502Z,31.67
2022-08-19T15:52:14.661Z,31.07
2022-08-19T15:53:48.776Z,31.23
2022-08-19T15:55:33.308Z,30.57
2022-08-19T15:57:25.297Z,28.83
2022-08-19T15:59:17.342Z,29.40
2022-08-19T16:01:12.772Z,29.33
2022-08-19T16:03:03.638Z,29.80
2022-08-19T16:04:54.677Z,29.63
2022-08-19T16:06:27.967Z,30.83
2022-08-19T16:08:01.257Z,30.67
2022-08-19T16:09:35.532Z,30.23
2022-08-19T16:11:07.697Z,30.63
2022-08-19T16:12:41.525Z,30.43
2022-08-19T16:14:16.725Z,31.70
2022-08-19T16:15:49.857Z,31.53
2022-08-19T16:17:23.011Z,28.73
2022-08-19T16:18:56.658Z,29.30
2022-08-19T16:20:30.498Z,29.63
2022-08-19T16:22:03.642Z,28.80
2022-08-19T16:23:36.956Z,30.47
2022-08-19T16:25:11.345Z,30.20
2022-08-19T16:26:47.451Z,29.03
2022-08-19T16:28:20.756Z,30.73
2022-08-19T16:29:55.646Z,29.13
2022-08-19T16:31:29.922Z,29.07
2022-08-19T16:33:03.126Z,29.83
2022-08-19T16:34:37.929Z,27.87
2022-08-19T16:36:11.109Z,28.83
2022-08-19T16:37:45.971Z,28.97
2022-08-19T16:39:19.784Z,29.60
2022-08-19T16:40:54.545Z,27.40
2022-08-19T16:42:30.656Z,27.23
2022-08-19T16:44:04.194Z,26.70
2022-08-19T16:45:38.734Z,27.17
2022-08-19T16:47:18.042Z,27.37
2022-08-19T16:48:51.831Z,28.20
2022-08-19T16:50:39.303Z,27.17
2022-08-19T16:52:18.478Z,27.00
2022-08-19T16:53:53.583Z,28.53
2022-08-19T16:55:28.339Z,27.27
2022-08-19T16:57:01.486Z,28.13
2022-08-19T16:58:35.341Z,27.27
2022-08-19T17:00:10.518Z,25.70
2022-08-19T17:01:45.529Z,27.07
2022-08-19T17:03:19.703Z,25.53
2022-08-19T17:05:10.868Z,26.20
2022-08-19T17:06:44.696Z,25.37
2022-08-19T17:08:18.465Z,24.63
2022-08-19T17:09:52.375Z,25.33
2022-08-19T17:11:27.168Z,24.30
2022-08-19T17:13:00.273Z,24.53
2022-08-19T17:14:33.632Z,25.47
2022-08-19T17:16:07.544Z,25.63
2022-08-19T17:17:42.151Z,26.17
2022-08-19T17:19:15.242Z,24.33
2022-08-19T17:20:48.442Z,23.97
2022-08-19T17:22:21.594Z,23.07
2022-08-19T17:23:55.536Z,23.70
2022-08-19T17:25:30.992Z,23.13
2022-08-19T17:27:05.429Z,23.80
2022-08-19T17:28:38.549Z,25.10
2022-08-19T17:30:12.243Z,24.50
2022-08-19T17:31:45.387Z,23.80
2022-08-19T17:33:19.926Z,23.60
2022-08-19T17:34:54.075Z,23.00
2022-08-19T17:36:30.336Z,23.10
2022-08-19T17:38:05.772Z,24.07
2022-08-19T17:39:39.647Z,22.37
2022-08-19T17:41:13.153Z,22.37
2022-08-19T17:42:46.666Z,21.47
2022-08-19T17:44:19.837Z,23.73
2022-08-19T17:45:53.133Z,21.97
2022-08-19T17:47:26.816Z,22.90
2022-08-19T17:49:01.454Z,21.60
2022-08-19T17:50:35.306Z,22.53
2022-08-19T17:52:10.178Z,22.23
2022-08-19T17:53:43.388Z,21.37
2022-08-19T17:55:16.536Z,21.83
2022-08-19T17:56:49.696Z,23.33
2022-08-19T17:58:21.881Z,22.10
2022-08-19T17:59:55.813Z,22.60
2022-08-19T18:01:44.029Z,22.17
2022-08-19T18:03:24.229Z,23.13
2022-08-19T18:04:58.751Z,22.90
2022-08-19T18:06:31.985Z,23.23
2022-08-19T18:08:06.754Z,22.33
2022-08-19T18:09:43.015Z,21.00
2022-08-19T18:11:22.717Z,22.77
2022-08-19T18:12:56.425Z,21.03
2022-08-19T18:14:34.300Z,22.43
2022-08-19T18:16:11.159Z,21.47
2022-08-19T18:17:44.509Z,21.63
2022-08-19T18:19:17.584Z,21.43
2022-08-19T18:20:52.139Z,22.57
2022-08-19T18:22:28.330Z,32.83
2022-08-19T18:24:02.051Z,20.73
2022-08-19T18:25:35.357Z,21.67
2022-08-19T18:27:08.725Z,21.00
2022-08-19T18:28:49.780Z,21.77
2022-08-19T18:30:24.740Z,20.63
2022-08-19T18:31:57.862Z,20.27
2022-08-19T18:33:30.977Z,19.30
2022-08-19T18:35:09.929Z,20.77
2022-08-19T18:36:53.871Z,23.43
2022-08-19T18:38:52.981Z,22.83
2022-08-19T18:40:45.280Z,26.13
2022-08-19T18:42:37.014Z,23.77
2022-08-19T18:44:28.415Z,25.10
2022-08-19T18:46:19.061Z,23.70
2022-08-19T18:48:26.962Z,25.33
2022-08-19T18:50:08.085Z,22.20
2022-08-19T18:51:46.377Z,23.97
2022-08-19T18:53:19.484Z,24.20
2022-08-19T18:54:52.656Z,22.57
2022-08-19T18:56:28.841Z,23.83
2022-08-19T18:58:02.671Z,23.87
2022-08-19T18:59:36.989Z,23.93
2022-08-19T19:01:12.917Z,23.30
2022-08-19T19:02:46.807Z,24.93
2022-08-19T19:04:22.701Z,24.13
2022-08-19T19:05:55.910Z,22.77
2022-08-19T19:07:30.443Z,23.53
2022-08-19T19:09:03.587Z,24.27
2022-08-19T19:10:36.812Z,23.37
2022-08-19T19:12:12.217Z,25.57
2022-08-19T19:13:46.931Z,24.50
2022-08-19T19:15:20.036Z,25.10
2022-08-19T19:16:53.538Z,27.30
2022-08-19T19:18:26.657Z,25.30
2022-08-19T19:19:59.863Z,24.87
2022-08-19T19:21:34.605Z,26.03
2022-08-19T19:23:09.898Z,25.10
2022-08-19T19:24:44.834Z,24.80
2022-08-19T19:26:18.134Z,26.47
2022-08-19T19:27:51.324Z,24.90
2022-08-19T19:29:25.352Z,25.57
2022-08-19T19:31:00.690Z,25.43
2022-08-19T19:32:39.263Z,26.73
2022-08-19T19:34:29.277Z,26.60
2022-08-19T19:36:03.278Z,25.93
2022-08-19T19:37:36.422Z,25.73
2022-08-19T19:39:10.924Z,29.57
2022-08-19T19:40:44.593Z,29.40
2022-08-19T19:42:21.175Z,31.93
2022-08-19T19:44:23.199Z,29.30
2022-08-19T19:45:49.800Z,31.67
2022-08-19T19:47:24.509Z,33.53
2022-08-19T19:49:00.045Z,33.00
2022-08-19T19:50:33.559Z,33.17
2022-08-19T19:52:07.604Z,31.23
2022-08-19T19:53:46.889Z,30.83
2022-08-19T19:55:21.526Z,33.43
2022-08-19T19:56:54.690Z,31.80
2022-08-19T19:58:29.328Z,32.33
2022-08-19T20:00:02.789Z,31.23
2022-08-19T20:01:37.970Z,32.07
2022-08-19T20:03:11.297Z,32.30
2022-08-19T20:04:44.449Z,30.07
2022-08-19T20:06:19.486Z,31.07
2022-08-19T20:08:12.137Z,31.27
2022-08-19T20:09:59.174Z,30.60
2022-08-19T20:11:35.757Z,31.97
2022-08-19T20:13:10.261Z,31.67
2022-08-19T20:14:43.584Z,29.87
2022-08-19T20:16:17.889Z,30.47
2022-08-19T20:17:51.210Z,28.83
2022-08-19T20:19:27.094Z,30.80
2022-08-19T20:21:01.253Z,31.50
2022-08-19T20:22:34.376Z,31.13
2022-08-19T20:24:09.986Z,30.27
2022-08-19T20:25:43.561Z,31.67
2022-08-19T20:27:19.941Z,30.27
2022-08-19T20:28:58.292Z,30.47
2022-08-19T20:30:46.704Z,30.17
2022-08-19T20:32:21.636Z,29.33
2022-08-19T20:33:54.766Z,29.00
2022-08-19T20:35:27.940Z,29.83
2022-08-19T20:37:01.063Z,28.73
2022-08-19T20:38:35.327Z,28.90
2022-08-19T20:40:10.889Z,29.70
2022-08-19T20:41:44.444Z,29.03